sensor_id;sensor_type;location;lat;lon;timestamp;temperature;humidity
23873;DHT22;42884;50.718;4.630;2023-09-30T00:00:00;13.10;99.90
23873;DHT22;42884;50.718;4.630;2023-09-30T00:02:26;13.10;99.90
23873;DHT22;42884;50.718;4.630;2023-09-30T00:04:52;13.10;99.90
23873;DHT22;42884;50.718;4.630;2023-09-30T00:07:17;13.10;99.90
23873;DHT22;42884;50.718;4.630;2023-09-30T00:09:43;13.10;99.90
23873;DHT22;42884;50.718;4.630;2023-09-30T00:12:08;13.20;99.90
23873;DHT22;42884;50.718;4.630;2023-09-30T00:14:34;13.10;99.90
23873;DHT22;42884;50.718;4.630;2023-09-30T00:17:01;13.20;99.90
23873;DHT22;42884;50.718;4.630;2023-09-30T00:19:27;13.10;99.90
23873;DHT22;42884;50.718;4.630;2023-09-30T00:21:53;13.00;99.90
23873;DHT22;42884;50.718;4.630;2023-09-30T00:24:18;13.10;99.90
23873;DHT22;42884;50.718;4.630;2023-09-30T00:26:45;13.00;99.90
23873;DHT22;42884;50.718;4.630;2023-09-30T00:29:11;13.00;99.90
23873;DHT22;42884;50.718;4.630;2023-09-30T00:31:37;13.10;99.90
23873;DHT22;42884;50.718;4.630;2023-09-30T00:34:02;13.00;99.90
23873;DHT22;42884;50.718;4.630;2023-09-30T00:36:28;13.00;99.90
23873;DHT22;42884;50.718;4.630;2023-09-30T00:38:53;12.80;99.90
23873;DHT22;42884;50.718;4.630;2023-09-30T00:41:19;12.80;99.90
23873;DHT22;42884;50.718;4.630;2023-09-30T00:43:48;12.90;99.90
23873;DHT22;42884;50.718;4.630;2023-09-30T00:48:39;12.80;99.90
23873;DHT22;42884;50.718;4.630;2023-09-30T00:51:05;12.80;99.90
23873;DHT22;42884;50.718;4.630;2023-09-30T00:53:31;12.60;99.90
23873;DHT22;42884;50.718;4.630;2023-09-30T00:55:57;12.70;99.90
23873;DHT22;42884;50.718;4.630;2023-09-30T00:58:25;12.70;99.90
23873;DHT22;42884;50.718;4.630;2023-09-30T01:00:53;12.80;99.90
23873;DHT22;42884;50.718;4.630;2023-09-30T01:03:19;12.80;99.90
23873;DHT22;42884;50.718;4.630;2023-09-30T01:05:45;12.80;99.90
23873;DHT22;42884;50.718;4.630;2023-09-30T01:08:11;12.80;99.90
23873;DHT22;42884;50.718;4.630;2023-09-30T01:10:36;12.70;99.90
23873;DHT22;42884;50.718;4.630;2023-09-30T01:13:02;12.70;99.90
23873;DHT22;42884;50.718;4.630;2023-09-30T01:15:31;12.70;99.90
23873;DHT22;42884;50.718;4.630;2023-09-30T01:17:56;12.80;99.90
23873;DHT22;42884;50.718;4.630;2023-09-30T01:20:23;12.70;99.90
23873;DHT22;42884;50.718;4.630;2023-09-30T01:22:49;12.70;99.90
23873;DHT22;42884;50.718;4.630;2023-09-30T01:25:14;12.80;99.90
23873;DHT22;42884;50.718;4.630;2023-09-30T01:27:40;12.80;99.90
23873;DHT22;42884;50.718;4.630;2023-09-30T01:30:06;12.80;99.90
23873;DHT22;42884;50.718;4.630;2023-09-30T01:32:36;12.80;99.90
23873;DHT22;42884;50.718;4.630;2023-09-30T01:35:02;12.80;99.90
23873;DHT22;42884;50.718;4.630;2023-09-30T01:37:27;12.80;99.90
23873;DHT22;42884;50.718;4.630;2023-09-30T01:39:53;12.70;99.90
23873;DHT22;42884;50.718;4.630;2023-09-30T01:42:20;12.70;99.90
23873;DHT22;42884;50.718;4.630;2023-09-30T01:44:46;12.70;99.90
23873;DHT22;42884;50.718;4.630;2023-09-30T01:47:11;12.70;99.90
23873;DHT22;42884;50.718;4.630;2023-09-30T01:49:37;12.70;99.90
23873;DHT22;42884;50.718;4.630;2023-09-30T01:52:03;12.60;99.90
23873;DHT22;42884;50.718;4.630;2023-09-30T01:54:29;12.70;99.90
23873;DHT22;42884;50.718;4.630;2023-09-30T01:56:55;12.60;99.90
23873;DHT22;42884;50.718;4.630;2023-09-30T01:59:20;12.70;99.90
23873;DHT22;42884;50.718;4.630;2023-09-30T02:01:46;12.60;99.90
23873;DHT22;42884;50.718;4.630;2023-09-30T02:04:12;12.60;99.90
23873;DHT22;42884;50.718;4.630;2023-09-30T02:06:40;12.60;99.90
23873;DHT22;42884;50.718;4.630;2023-09-30T02:09:06;12.60;99.90
23873;DHT22;42884;50.718;4.630;2023-09-30T02:11:34;12.60;99.90
23873;DHT22;42884;50.718;4.630;2023-09-30T02:14:01;12.60;99.90
23873;DHT22;42884;50.718;4.630;2023-09-30T02:16:27;12.70;99.90
23873;DHT22;42884;50.718;4.630;2023-09-30T02:18:52;12.70;99.90
23873;DHT22;42884;50.718;4.630;2023-09-30T02:21:19;12.70;99.90
23873;DHT22;42884;50.718;4.630;2023-09-30T02:23:44;12.60;99.90
23873;DHT22;42884;50.718;4.630;2023-09-30T02:26:15;12.60;99.90
23873;DHT22;42884;50.718;4.630;2023-09-30T02:28:41;12.60;99.90
23873;DHT22;42884;50.718;4.630;2023-09-30T02:31:06;12.60;99.90
23873;DHT22;42884;50.718;4.630;2023-09-30T02:33:35;12.60;99.90
23873;DHT22;42884;50.718;4.630;2023-09-30T02:36:01;12.60;99.90
23873;DHT22;42884;50.718;4.630;2023-09-30T02:38:26;12.60;99.90
23873;DHT22;42884;50.718;4.630;2023-09-30T02:40:53;12.50;99.90
23873;DHT22;42884;50.718;4.630;2023-09-30T02:43:19;12.50;99.90
23873;DHT22;42884;50.718;4.630;2023-09-30T02:45:45;12.50;99.90
23873;DHT22;42884;50.718;4.630;2023-09-30T02:48:11;12.50;99.90
23873;DHT22;42884;50.718;4.630;2023-09-30T02:50:37;12.50;99.90
23873;DHT22;42884;50.718;4.630;2023-09-30T02:53:03;12.50;99.90
23873;DHT22;42884;50.718;4.630;2023-09-30T02:55:29;12.50;99.90
23873;DHT22;42884;50.718;4.630;2023-09-30T02:57:55;12.40;99.90
23873;DHT22;42884;50.718;4.630;2023-09-30T03:00:21;12.40;99.90
23873;DHT22;42884;50.718;4.630;2023-09-30T03:02:47;12.40;99.90
23873;DHT22;42884;50.718;4.630;2023-09-30T03:05:12;12.40;99.90
23873;DHT22;42884;50.718;4.630;2023-09-30T03:07:39;12.40;99.90
23873;DHT22;42884;50.718;4.630;2023-09-30T03:10:07;12.30;99.90
23873;DHT22;42884;50.718;4.630;2023-09-30T03:12:34;12.30;99.90
23873;DHT22;42884;50.718;4.630;2023-09-30T03:15:00;12.20;99.90
23873;DHT22;42884;50.718;4.630;2023-09-30T03:17:32;12.30;99.90
23873;DHT22;42884;50.718;4.630;2023-09-30T03:19:58;12.20;99.90
23873;DHT22;42884;50.718;4.630;2023-09-30T03:22:25;12.20;99.90
23873;DHT22;42884;50.718;4.630;2023-09-30T03:24:52;12.20;99.90
23873;DHT22;42884;50.718;4.630;2023-09-30T03:27:19;12.10;99.90
23873;DHT22;42884;50.718;4.630;2023-09-30T03:29:45;12.20;99.90
23873;DHT22;42884;50.718;4.630;2023-09-30T03:32:11;12.10;99.90
23873;DHT22;42884;50.718;4.630;2023-09-30T03:34:37;12.10;99.90
23873;DHT22;42884;50.718;4.630;2023-09-30T03:37:02;12.00;99.90
23873;DHT22;42884;50.718;4.630;2023-09-30T03:39:32;12.00;99.90
23873;DHT22;42884;50.718;4.630;2023-09-30T03:41:57;12.00;99.90
23873;DHT22;42884;50.718;4.630;2023-09-30T03:44:24;12.00;99.90
23873;DHT22;42884;50.718;4.630;2023-09-30T03:46:53;12.00;99.90
23873;DHT22;42884;50.718;4.630;2023-09-30T03:49:19;11.90;99.90
23873;DHT22;42884;50.718;4.630;2023-09-30T03:51:47;11.80;99.90
23873;DHT22;42884;50.718;4.630;2023-09-30T03:54:16;11.90;99.90
23873;DHT22;42884;50.718;4.630;2023-09-30T03:56:41;11.80;99.90
23873;DHT22;42884;50.718;4.630;2023-09-30T03:59:07;11.80;99.90
23873;DHT22;42884;50.718;4.630;2023-09-30T04:01:34;11.80;99.90
23873;DHT22;42884;50.718;4.630;2023-09-30T04:04:00;11.70;99.90
23873;DHT22;42884;50.718;4.630;2023-09-30T04:06:26;11.70;99.90
23873;DHT22;42884;50.718;4.630;2023-09-30T04:08:51;11.70;99.90
23873;DHT22;42884;50.718;4.630;2023-09-30T04:11:17;11.70;99.90
23873;DHT22;42884;50.718;4.630;2023-09-30T04:13:46;11.70;99.90
23873;DHT22;42884;50.718;4.630;2023-09-30T04:16:11;11.70;99.90
23873;DHT22;42884;50.718;4.630;2023-09-30T04:18:37;11.70;99.90
23873;DHT22;42884;50.718;4.630;2023-09-30T04:21:05;11.60;99.90
23873;DHT22;42884;50.718;4.630;2023-09-30T04:23:32;11.60;99.90
23873;DHT22;42884;50.718;4.630;2023-09-30T04:25:59;11.60;99.90
23873;DHT22;42884;50.718;4.630;2023-09-30T04:28:24;11.50;99.90
23873;DHT22;42884;50.718;4.630;2023-09-30T04:30:50;11.50;99.90
23873;DHT22;42884;50.718;4.630;2023-09-30T04:33:16;11.50;99.90
23873;DHT22;42884;50.718;4.630;2023-09-30T04:35:46;11.50;99.90
23873;DHT22;42884;50.718;4.630;2023-09-30T04:38:12;11.50;99.90
23873;DHT22;42884;50.718;4.630;2023-09-30T04:40:38;11.50;99.90
23873;DHT22;42884;50.718;4.630;2023-09-30T04:43:04;11.40;99.90
23873;DHT22;42884;50.718;4.630;2023-09-30T04:45:30;11.40;99.90
23873;DHT22;42884;50.718;4.630;2023-09-30T04:48:16;11.40;99.90
23873;DHT22;42884;50.718;4.630;2023-09-30T04:50:42;11.30;99.90
23873;DHT22;42884;50.718;4.630;2023-09-30T04:53:07;11.30;99.90
23873;DHT22;42884;50.718;4.630;2023-09-30T04:55:34;11.30;99.90
23873;DHT22;42884;50.718;4.630;2023-09-30T04:57:59;11.30;99.90
23873;DHT22;42884;50.718;4.630;2023-09-30T05:00:25;11.30;99.90
23873;DHT22;42884;50.718;4.630;2023-09-30T05:02:51;11.20;99.90
23873;DHT22;42884;50.718;4.630;2023-09-30T05:05:18;11.20;99.90
23873;DHT22;42884;50.718;4.630;2023-09-30T05:07:44;11.10;99.90
23873;DHT22;42884;50.718;4.630;2023-09-30T05:10:12;11.10;99.90
23873;DHT22;42884;50.718;4.630;2023-09-30T05:12:41;11.10;99.90
23873;DHT22;42884;50.718;4.630;2023-09-30T05:15:11;11.10;99.90
23873;DHT22;42884;50.718;4.630;2023-09-30T05:17:38;11.10;99.90
23873;DHT22;42884;50.718;4.630;2023-09-30T05:20:03;11.00;99.90
23873;DHT22;42884;50.718;4.630;2023-09-30T05:22:33;11.10;99.90
23873;DHT22;42884;50.718;4.630;2023-09-30T05:24:58;11.10;99.90
23873;DHT22;42884;50.718;4.630;2023-09-30T05:27:24;11.00;99.90
23873;DHT22;42884;50.718;4.630;2023-09-30T05:29:50;11.00;99.90
23873;DHT22;42884;50.718;4.630;2023-09-30T05:32:15;11.00;99.90
23873;DHT22;42884;50.718;4.630;2023-09-30T05:34:41;11.00;99.90
23873;DHT22;42884;50.718;4.630;2023-09-30T05:37:07;11.00;99.90
23873;DHT22;42884;50.718;4.630;2023-09-30T05:39:32;11.00;99.90
23873;DHT22;42884;50.718;4.630;2023-09-30T05:41:58;10.90;99.90
23873;DHT22;42884;50.718;4.630;2023-09-30T05:44:24;10.90;99.90
23873;DHT22;42884;50.718;4.630;2023-09-30T05:46:52;10.90;99.90
23873;DHT22;42884;50.718;4.630;2023-09-30T05:49:18;11.00;99.90
23873;DHT22;42884;50.718;4.630;2023-09-30T05:51:44;10.90;99.90
23873;DHT22;42884;50.718;4.630;2023-09-30T05:54:11;10.90;99.90
23873;DHT22;42884;50.718;4.630;2023-09-30T05:56:37;10.90;99.90
23873;DHT22;42884;50.718;4.630;2023-09-30T05:59:03;10.90;99.90
23873;DHT22;42884;50.718;4.630;2023-09-30T06:01:30;11.00;99.90
23873;DHT22;42884;50.718;4.630;2023-09-30T06:03:57;11.00;99.90
23873;DHT22;42884;50.718;4.630;2023-09-30T06:06:23;10.90;99.90
23873;DHT22;42884;50.718;4.630;2023-09-30T06:08:49;10.90;99.90
23873;DHT22;42884;50.718;4.630;2023-09-30T06:13:45;10.90;99.90
23873;DHT22;42884;50.718;4.630;2023-09-30T06:16:12;11.00;99.90
23873;DHT22;42884;50.718;4.630;2023-09-30T06:18:37;11.00;99.90
23873;DHT22;42884;50.718;4.630;2023-09-30T06:21:03;11.00;99.90
23873;DHT22;42884;50.718;4.630;2023-09-30T06:23:29;11.00;99.90
23873;DHT22;42884;50.718;4.630;2023-09-30T06:25:55;11.00;99.90
23873;DHT22;42884;50.718;4.630;2023-09-30T06:28:21;11.10;99.90
23873;DHT22;42884;50.718;4.630;2023-09-30T06:30:51;11.10;99.90
23873;DHT22;42884;50.718;4.630;2023-09-30T06:33:17;11.10;99.90
23873;DHT22;42884;50.718;4.630;2023-09-30T06:35:43;11.10;99.90
23873;DHT22;42884;50.718;4.630;2023-09-30T06:38:19;11.10;99.90
23873;DHT22;42884;50.718;4.630;2023-09-30T06:40:44;11.30;99.90
23873;DHT22;42884;50.718;4.630;2023-09-30T06:43:12;11.40;99.90
23873;DHT22;42884;50.718;4.630;2023-09-30T06:45:37;11.30;99.90
23873;DHT22;42884;50.718;4.630;2023-09-30T06:48:10;11.40;99.90
23873;DHT22;42884;50.718;4.630;2023-09-30T06:50:43;11.50;99.90
23873;DHT22;42884;50.718;4.630;2023-09-30T06:53:09;11.60;99.90
23873;DHT22;42884;50.718;4.630;2023-09-30T06:55:38;11.80;99.90
23873;DHT22;42884;50.718;4.630;2023-09-30T06:58:08;11.80;99.90
23873;DHT22;42884;50.718;4.630;2023-09-30T07:00:38;11.80;99.90
23873;DHT22;42884;50.718;4.630;2023-09-30T07:03:04;12.00;99.90
23873;DHT22;42884;50.718;4.630;2023-09-30T07:05:35;12.00;99.90
23873;DHT22;42884;50.718;4.630;2023-09-30T07:08:01;12.20;99.90
23873;DHT22;42884;50.718;4.630;2023-09-30T07:10:33;12.20;99.90
23873;DHT22;42884;50.718;4.630;2023-09-30T07:12:58;12.30;99.90
23873;DHT22;42884;50.718;4.630;2023-09-30T07:15:24;12.50;99.90
23873;DHT22;42884;50.718;4.630;2023-09-30T07:17:49;12.60;99.90
23873;DHT22;42884;50.718;4.630;2023-09-30T07:20:24;12.70;99.90
23873;DHT22;42884;50.718;4.630;2023-09-30T07:22:50;12.80;99.90
23873;DHT22;42884;50.718;4.630;2023-09-30T07:25:18;12.90;99.90
23873;DHT22;42884;50.718;4.630;2023-09-30T07:27:44;13.00;99.90
23873;DHT22;42884;50.718;4.630;2023-09-30T07:30:13;13.10;99.90
23873;DHT22;42884;50.718;4.630;2023-09-30T07:32:43;13.20;99.90
23873;DHT22;42884;50.718;4.630;2023-09-30T07:35:09;13.30;99.90
23873;DHT22;42884;50.718;4.630;2023-09-30T07:37:35;13.50;99.90
23873;DHT22;42884;50.718;4.630;2023-09-30T07:40:01;13.60;99.90
23873;DHT22;42884;50.718;4.630;2023-09-30T07:42:26;13.70;99.90
23873;DHT22;42884;50.718;4.630;2023-09-30T07:44:52;13.80;99.90
23873;DHT22;42884;50.718;4.630;2023-09-30T07:47:18;13.90;99.90
23873;DHT22;42884;50.718;4.630;2023-09-30T07:49:43;14.00;99.90
23873;DHT22;42884;50.718;4.630;2023-09-30T07:52:09;14.10;99.90
23873;DHT22;42884;50.718;4.630;2023-09-30T07:54:36;14.30;99.90
23873;DHT22;42884;50.718;4.630;2023-09-30T07:57:01;14.40;99.90
23873;DHT22;42884;50.718;4.630;2023-09-30T07:59:27;14.50;99.90
23873;DHT22;42884;50.718;4.630;2023-09-30T08:01:53;14.60;99.90
23873;DHT22;42884;50.718;4.630;2023-09-30T08:04:19;14.70;99.90
23873;DHT22;42884;50.718;4.630;2023-09-30T08:06:44;14.80;99.90
23873;DHT22;42884;50.718;4.630;2023-09-30T08:09:13;14.90;99.90
23873;DHT22;42884;50.718;4.630;2023-09-30T08:11:39;14.90;99.90
23873;DHT22;42884;50.718;4.630;2023-09-30T08:14:04;15.10;99.90
23873;DHT22;42884;50.718;4.630;2023-09-30T08:16:37;15.20;99.90
23873;DHT22;42884;50.718;4.630;2023-09-30T08:19:03;15.40;99.90
23873;DHT22;42884;50.718;4.630;2023-09-30T08:21:29;15.50;99.90
23873;DHT22;42884;50.718;4.630;2023-09-30T08:23:56;15.60;99.90
23873;DHT22;42884;50.718;4.630;2023-09-30T08:26:21;15.60;99.90
23873;DHT22;42884;50.718;4.630;2023-09-30T08:28:47;15.60;99.90
23873;DHT22;42884;50.718;4.630;2023-09-30T08:31:13;15.70;99.90
23873;DHT22;42884;50.718;4.630;2023-09-30T08:33:39;15.70;99.90
23873;DHT22;42884;50.718;4.630;2023-09-30T08:36:06;15.90;99.90
23873;DHT22;42884;50.718;4.630;2023-09-30T08:38:37;15.90;99.90
23873;DHT22;42884;50.718;4.630;2023-09-30T08:41:03;16.00;99.90
23873;DHT22;42884;50.718;4.630;2023-09-30T08:43:28;16.20;99.90
23873;DHT22;42884;50.718;4.630;2023-09-30T08:45:56;16.40;99.90
23873;DHT22;42884;50.718;4.630;2023-09-30T08:48:43;16.50;99.90
23873;DHT22;42884;50.718;4.630;2023-09-30T08:51:08;16.50;99.90
23873;DHT22;42884;50.718;4.630;2023-09-30T08:53:34;16.50;99.90
23873;DHT22;42884;50.718;4.630;2023-09-30T08:55:59;16.70;99.90
23873;DHT22;42884;50.718;4.630;2023-09-30T08:58:29;16.70;99.90
23873;DHT22;42884;50.718;4.630;2023-09-30T09:00:56;16.90;99.90
23873;DHT22;42884;50.718;4.630;2023-09-30T09:03:21;17.10;99.90
23873;DHT22;42884;50.718;4.630;2023-09-30T09:05:54;17.20;99.90
23873;DHT22;42884;50.718;4.630;2023-09-30T09:08:24;17.50;99.90
23873;DHT22;42884;50.718;4.630;2023-09-30T09:10:54;17.60;99.90
23873;DHT22;42884;50.718;4.630;2023-09-30T09:13:23;18.00;99.90
23873;DHT22;42884;50.718;4.630;2023-09-30T09:15:49;18.60;99.90
23873;DHT22;42884;50.718;4.630;2023-09-30T09:18:36;19.20;99.90
23873;DHT22;42884;50.718;4.630;2023-09-30T09:21:16;19.50;99.90
23873;DHT22;42884;50.718;4.630;2023-09-30T09:23:43;20.20;99.90
23873;DHT22;42884;50.718;4.630;2023-09-30T09:26:12;20.80;99.90
23873;DHT22;42884;50.718;4.630;2023-09-30T09:28:39;21.40;99.90
23873;DHT22;42884;50.718;4.630;2023-09-30T09:31:22;21.70;99.90
23873;DHT22;42884;50.718;4.630;2023-09-30T09:33:51;21.70;99.90
23873;DHT22;42884;50.718;4.630;2023-09-30T09:36:18;21.00;99.90
23873;DHT22;42884;50.718;4.630;2023-09-30T09:38:48;21.00;99.90
23873;DHT22;42884;50.718;4.630;2023-09-30T09:41:14;21.30;99.90
23873;DHT22;42884;50.718;4.630;2023-09-30T09:43:41;21.00;99.90
23873;DHT22;42884;50.718;4.630;2023-09-30T09:46:10;21.20;99.90
23873;DHT22;42884;50.718;4.630;2023-09-30T09:48:36;21.50;99.90
23873;DHT22;42884;50.718;4.630;2023-09-30T09:51:02;21.70;99.90
23873;DHT22;42884;50.718;4.630;2023-09-30T09:53:34;21.50;99.90
23873;DHT22;42884;50.718;4.630;2023-09-30T09:56:00;21.20;99.90
23873;DHT22;42884;50.718;4.630;2023-09-30T09:58:26;21.10;99.90
23873;DHT22;42884;50.718;4.630;2023-09-30T10:00:52;21.00;99.90
23873;DHT22;42884;50.718;4.630;2023-09-30T10:03:18;21.00;99.90
23873;DHT22;42884;50.718;4.630;2023-09-30T10:05:44;20.80;99.90
23873;DHT22;42884;50.718;4.630;2023-09-30T10:08:14;20.60;99.90
23873;DHT22;42884;50.718;4.630;2023-09-30T10:10:42;20.60;99.90
23873;DHT22;42884;50.718;4.630;2023-09-30T10:13:09;21.20;99.90
23873;DHT22;42884;50.718;4.630;2023-09-30T10:15:35;21.90;99.90
23873;DHT22;42884;50.718;4.630;2023-09-30T10:18:04;22.60;99.90
23873;DHT22;42884;50.718;4.630;2023-09-30T10:20:32;22.30;99.90
23873;DHT22;42884;50.718;4.630;2023-09-30T10:25:45;22.20;99.90
23873;DHT22;42884;50.718;4.630;2023-09-30T10:36:26;22.10;99.90
23873;DHT22;42884;50.718;4.630;2023-09-30T10:38:52;22.00;99.90
23873;DHT22;42884;50.718;4.630;2023-09-30T10:41:48;21.70;99.90
23873;DHT22;42884;50.718;4.630;2023-09-30T10:46:48;21.40;99.90
23873;DHT22;42884;50.718;4.630;2023-09-30T10:49:15;21.40;99.90
23873;DHT22;42884;50.718;4.630;2023-09-30T10:51:42;21.30;99.90
23873;DHT22;42884;50.718;4.630;2023-09-30T10:54:08;21.10;99.90
23873;DHT22;42884;50.718;4.630;2023-09-30T10:56:33;21.10;99.90
23873;DHT22;42884;50.718;4.630;2023-09-30T10:58:59;21.00;99.90
23873;DHT22;42884;50.718;4.630;2023-09-30T11:01:32;20.90;99.90
23873;DHT22;42884;50.718;4.630;2023-09-30T11:03:59;21.00;99.90
23873;DHT22;42884;50.718;4.630;2023-09-30T11:06:28;21.10;99.90
23873;DHT22;42884;50.718;4.630;2023-09-30T11:08:57;21.20;99.90
23873;DHT22;42884;50.718;4.630;2023-09-30T11:11:41;21.00;99.90
23873;DHT22;42884;50.718;4.630;2023-09-30T11:16:42;20.80;99.90
23873;DHT22;42884;50.718;4.630;2023-09-30T11:19:08;20.80;99.90
23873;DHT22;42884;50.718;4.630;2023-09-30T11:21:34;20.70;99.90
23873;DHT22;42884;50.718;4.630;2023-09-30T11:24:00;20.70;99.90
23873;DHT22;42884;50.718;4.630;2023-09-30T11:26:29;20.60;99.90
23873;DHT22;42884;50.718;4.630;2023-09-30T11:29:04;20.60;99.90
23873;DHT22;42884;50.718;4.630;2023-09-30T11:31:29;20.50;99.90
23873;DHT22;42884;50.718;4.630;2023-09-30T11:33:59;20.40;99.90
23873;DHT22;42884;50.718;4.630;2023-09-30T11:36:29;20.30;99.90
23873;DHT22;42884;50.718;4.630;2023-09-30T11:38:55;20.20;99.90
23873;DHT22;42884;50.718;4.630;2023-09-30T11:41:21;20.30;99.90
23873;DHT22;42884;50.718;4.630;2023-09-30T11:44:00;20.30;99.90
23873;DHT22;42884;50.718;4.630;2023-09-30T11:46:26;20.50;99.90
23873;DHT22;42884;50.718;4.630;2023-09-30T11:48:59;20.50;99.90
23873;DHT22;42884;50.718;4.630;2023-09-30T11:51:25;20.40;99.90
23873;DHT22;42884;50.718;4.630;2023-09-30T11:53:52;20.50;99.90
23873;DHT22;42884;50.718;4.630;2023-09-30T11:56:19;20.50;99.90
23873;DHT22;42884;50.718;4.630;2023-09-30T11:58:45;20.60;99.90
23873;DHT22;42884;50.718;4.630;2023-09-30T12:01:14;20.60;99.90
23873;DHT22;42884;50.718;4.630;2023-09-30T12:03:40;20.60;99.90
23873;DHT22;42884;50.718;4.630;2023-09-30T12:06:05;20.70;99.90
23873;DHT22;42884;50.718;4.630;2023-09-30T12:08:31;20.80;99.90
23873;DHT22;42884;50.718;4.630;2023-09-30T12:10:57;20.80;99.90
23873;DHT22;42884;50.718;4.630;2023-09-30T12:13:25;20.90;99.90
23873;DHT22;42884;50.718;4.630;2023-09-30T12:15:51;20.90;99.90
23873;DHT22;42884;50.718;4.630;2023-09-30T12:18:18;21.10;99.90
23873;DHT22;42884;50.718;4.630;2023-09-30T12:20:49;21.00;99.90
23873;DHT22;42884;50.718;4.630;2023-09-30T12:23:14;21.00;99.90
23873;DHT22;42884;50.718;4.630;2023-09-30T12:25:40;21.40;99.90
23873;DHT22;42884;50.718;4.630;2023-09-30T12:28:07;21.50;99.90
23873;DHT22;42884;50.718;4.630;2023-09-30T12:30:32;21.80;99.90
23873;DHT22;42884;50.718;4.630;2023-09-30T12:32:58;21.90;99.90
23873;DHT22;42884;50.718;4.630;2023-09-30T12:35:24;21.80;99.90
23873;DHT22;42884;50.718;4.630;2023-09-30T12:37:50;21.80;99.90
23873;DHT22;42884;50.718;4.630;2023-09-30T12:40:16;22.10;99.90
23873;DHT22;42884;50.718;4.630;2023-09-30T12:42:42;22.10;99.90
23873;DHT22;42884;50.718;4.630;2023-09-30T12:45:08;22.20;99.90
23873;DHT22;42884;50.718;4.630;2023-09-30T12:47:34;22.30;99.90
23873;DHT22;42884;50.718;4.630;2023-09-30T12:50:00;22.60;99.90
23873;DHT22;42884;50.718;4.630;2023-09-30T12:52:25;23.10;99.90
23873;DHT22;42884;50.718;4.630;2023-09-30T12:54:51;23.20;99.90
23873;DHT22;42884;50.718;4.630;2023-09-30T12:57:16;23.20;99.90
23873;DHT22;42884;50.718;4.630;2023-09-30T12:59:43;22.90;99.90
23873;DHT22;42884;50.718;4.630;2023-09-30T13:02:11;22.90;99.90
23873;DHT22;42884;50.718;4.630;2023-09-30T13:04:37;23.10;99.90
23873;DHT22;42884;50.718;4.630;2023-09-30T13:07:08;23.40;99.90
23873;DHT22;42884;50.718;4.630;2023-09-30T13:09:34;23.40;99.90
23873;DHT22;42884;50.718;4.630;2023-09-30T13:11:59;23.40;99.90
23873;DHT22;42884;50.718;4.630;2023-09-30T13:14:25;22.90;99.90
23873;DHT22;42884;50.718;4.630;2023-09-30T13:16:53;22.90;99.90
23873;DHT22;42884;50.718;4.630;2023-09-30T13:19:19;23.20;99.90
23873;DHT22;42884;50.718;4.630;2023-09-30T13:21:49;23.50;99.90
23873;DHT22;42884;50.718;4.630;2023-09-30T13:24:18;23.80;99.90
23873;DHT22;42884;50.718;4.630;2023-09-30T13:26:45;24.30;99.90
23873;DHT22;42884;50.718;4.630;2023-09-30T13:29:11;24.70;99.90
23873;DHT22;42884;50.718;4.630;2023-09-30T13:31:37;25.20;99.90
23873;DHT22;42884;50.718;4.630;2023-09-30T13:34:04;25.30;99.90
23873;DHT22;42884;50.718;4.630;2023-09-30T13:36:29;25.80;99.90
23873;DHT22;42884;50.718;4.630;2023-09-30T13:38:55;25.90;99.90
23873;DHT22;42884;50.718;4.630;2023-09-30T13:41:21;26.20;99.90
23873;DHT22;42884;50.718;4.630;2023-09-30T13:43:47;26.10;99.90
23873;DHT22;42884;50.718;4.630;2023-09-30T13:46:12;26.20;99.90
23873;DHT22;42884;50.718;4.630;2023-09-30T13:48:38;26.10;99.90
23873;DHT22;42884;50.718;4.630;2023-09-30T13:51:05;25.90;99.90
23873;DHT22;42884;50.718;4.630;2023-09-30T13:53:30;26.00;99.90
23873;DHT22;42884;50.718;4.630;2023-09-30T13:55:57;26.10;99.90
23873;DHT22;42884;50.718;4.630;2023-09-30T13:58:22;26.10;99.90
23873;DHT22;42884;50.718;4.630;2023-09-30T14:00:48;26.20;99.90
23873;DHT22;42884;50.718;4.630;2023-09-30T14:03:13;26.50;99.90
23873;DHT22;42884;50.718;4.630;2023-09-30T14:05:39;26.60;99.90
23873;DHT22;42884;50.718;4.630;2023-09-30T14:08:05;27.20;99.90
23873;DHT22;42884;50.718;4.630;2023-09-30T14:10:33;27.10;99.90
23873;DHT22;42884;50.718;4.630;2023-09-30T14:12:58;27.00;99.90
23873;DHT22;42884;50.718;4.630;2023-09-30T14:15:24;26.60;99.90
23873;DHT22;42884;50.718;4.630;2023-09-30T14:17:56;26.60;99.90
23873;DHT22;42884;50.718;4.630;2023-09-30T14:20:23;26.40;99.90
23873;DHT22;42884;50.718;4.630;2023-09-30T14:22:49;26.50;99.90
23873;DHT22;42884;50.718;4.630;2023-09-30T14:25:17;26.00;99.90
23873;DHT22;42884;50.718;4.630;2023-09-30T14:27:42;25.80;99.90
23873;DHT22;42884;50.718;4.630;2023-09-30T14:30:08;25.40;99.90
23873;DHT22;42884;50.718;4.630;2023-09-30T14:32:34;25.40;99.90
23873;DHT22;42884;50.718;4.630;2023-09-30T14:34:59;25.40;99.90
23873;DHT22;42884;50.718;4.630;2023-09-30T14:37:25;25.50;99.90
23873;DHT22;42884;50.718;4.630;2023-09-30T14:39:50;25.50;99.90
23873;DHT22;42884;50.718;4.630;2023-09-30T14:42:16;25.50;99.90
23873;DHT22;42884;50.718;4.630;2023-09-30T14:44:42;25.10;99.90
23873;DHT22;42884;50.718;4.630;2023-09-30T14:47:08;25.10;99.90
23873;DHT22;42884;50.718;4.630;2023-09-30T14:49:34;25.30;99.90
23873;DHT22;42884;50.718;4.630;2023-09-30T14:51:59;25.00;99.90
23873;DHT22;42884;50.718;4.630;2023-09-30T14:54:25;25.20;99.90
23873;DHT22;42884;50.718;4.630;2023-09-30T14:56:51;25.50;99.90
23873;DHT22;42884;50.718;4.630;2023-09-30T14:59:16;25.60;99.90
23873;DHT22;42884;50.718;4.630;2023-09-30T15:01:42;25.20;99.90
23873;DHT22;42884;50.718;4.630;2023-09-30T15:04:08;24.60;99.90
23873;DHT22;42884;50.718;4.630;2023-09-30T15:06:33;24.70;99.90
23873;DHT22;42884;50.718;4.630;2023-09-30T15:09:02;24.70;99.90
23873;DHT22;42884;50.718;4.630;2023-09-30T15:11:29;24.50;99.90
23873;DHT22;42884;50.718;4.630;2023-09-30T15:13:55;24.30;99.90
23873;DHT22;42884;50.718;4.630;2023-09-30T15:16:21;24.30;99.90
23873;DHT22;42884;50.718;4.630;2023-09-30T15:18:48;24.20;99.90
23873;DHT22;42884;50.718;4.630;2023-09-30T15:21:14;24.00;99.90
23873;DHT22;42884;50.718;4.630;2023-09-30T15:23:40;24.00;99.90
23873;DHT22;42884;50.718;4.630;2023-09-30T15:26:06;23.90;99.90
23873;DHT22;42884;50.718;4.630;2023-09-30T15:28:32;23.80;99.90
23873;DHT22;42884;50.718;4.630;2023-09-30T15:30:58;23.70;99.90
23873;DHT22;42884;50.718;4.630;2023-09-30T15:33:24;23.40;99.90
23873;DHT22;42884;50.718;4.630;2023-09-30T15:35:50;23.30;99.90
23873;DHT22;42884;50.718;4.630;2023-09-30T15:38:15;23.20;99.90
23873;DHT22;42884;50.718;4.630;2023-09-30T15:40:56;23.10;99.90
23873;DHT22;42884;50.718;4.630;2023-09-30T15:43:29;23.00;99.90
23873;DHT22;42884;50.718;4.630;2023-09-30T15:45:54;23.00;99.90
23873;DHT22;42884;50.718;4.630;2023-09-30T15:48:20;22.80;99.90